sensor_id;sensor_type;location;lat;lon;timestamp;temperature;humidity
10231;DHT22;62604;49.432;8.680;2022-10-16T00:01:27;16.40;99.90
10231;DHT22;62604;49.432;8.680;2022-10-16T00:03:58;16.50;99.90
10231;DHT22;62604;49.432;8.680;2022-10-16T00:06:27;16.50;99.90
10231;DHT22;62604;49.432;8.680;2022-10-16T00:08:55;16.50;99.90
10231;DHT22;62604;49.432;8.680;2022-10-16T00:11:26;16.50;99.90
10231;DHT22;62604;49.432;8.680;2022-10-16T00:13:56;16.50;99.90
10231;DHT22;62604;49.432;8.680;2022-10-16T00:16:23;16.50;99.90
10231;DHT22;62604;49.432;8.680;2022-10-16T00:18:51;16.50;99.90
10231;DHT22;62604;49.432;8.680;2022-10-16T00:21:22;16.50;99.90
10231;DHT22;62604;49.432;8.680;2022-10-16T00:23:51;16.50;99.90
10231;DHT22;62604;49.432;8.680;2022-10-16T00:26:19;16.50;99.90
10231;DHT22;62604;49.432;8.680;2022-10-16T00:28:47;16.60;99.90
10231;DHT22;62604;49.432;8.680;2022-10-16T00:31:15;16.60;99.90
10231;DHT22;62604;49.432;8.680;2022-10-16T00:33:43;16.60;99.90
10231;DHT22;62604;49.432;8.680;2022-10-16T00:36:12;16.60;99.90
10231;DHT22;62604;49.432;8.680;2022-10-16T00:38:41;16.60;99.90
10231;DHT22;62604;49.432;8.680;2022-10-16T00:41:11;16.60;99.90
10231;DHT22;62604;49.432;8.680;2022-10-16T00:43:41;16.60;99.90
10231;DHT22;62604;49.432;8.680;2022-10-16T00:46:17;16.60;99.90
10231;DHT22;62604;49.432;8.680;2022-10-16T00:48:49;16.60;99.90
10231;DHT22;62604;49.432;8.680;2022-10-16T00:51:21;16.60;99.90
10231;DHT22;62604;49.432;8.680;2022-10-16T00:53:51;16.60;99.90
10231;DHT22;62604;49.432;8.680;2022-10-16T00:56:19;16.60;99.90
10231;DHT22;62604;49.432;8.680;2022-10-16T00:58:48;16.60;99.90
10231;DHT22;62604;49.432;8.680;2022-10-16T01:01:15;16.60;99.90
10231;DHT22;62604;49.432;8.680;2022-10-16T01:03:42;16.60;99.90
10231;DHT22;62604;49.432;8.680;2022-10-16T01:06:21;16.60;99.90
10231;DHT22;62604;49.432;8.680;2022-10-16T01:09:02;16.50;99.90
10231;DHT22;62604;49.432;8.680;2022-10-16T01:11:38;16.50;99.90
10231;DHT22;62604;49.432;8.680;2022-10-16T01:14:11;16.50;99.90
10231;DHT22;62604;49.432;8.680;2022-10-16T01:16:44;16.50;99.90
10231;DHT22;62604;49.432;8.680;2022-10-16T01:19:18;16.50;99.90
10231;DHT22;62604;49.432;8.680;2022-10-16T01:21:48;16.50;99.90
10231;DHT22;62604;49.432;8.680;2022-10-16T01:24:30;16.50;99.90
10231;DHT22;62604;49.432;8.680;2022-10-16T01:27:11;16.50;99.90
10231;DHT22;62604;49.432;8.680;2022-10-16T01:29:44;16.50;99.90
10231;DHT22;62604;49.432;8.680;2022-10-16T01:32:18;16.50;99.90
10231;DHT22;62604;49.432;8.680;2022-10-16T01:34:50;16.50;99.90
10231;DHT22;62604;49.432;8.680;2022-10-16T01:37:24;16.50;99.90
10231;DHT22;62604;49.432;8.680;2022-10-16T01:39:55;16.50;99.90
10231;DHT22;62604;49.432;8.680;2022-10-16T01:42:31;16.50;99.90
10231;DHT22;62604;49.432;8.680;2022-10-16T01:44:59;16.50;99.90
10231;DHT22;62604;49.432;8.680;2022-10-16T01:47:27;16.50;99.90
10231;DHT22;62604;49.432;8.680;2022-10-16T01:49:58;16.50;99.90
10231;DHT22;62604;49.432;8.680;2022-10-16T01:52:26;16.50;99.90
10231;DHT22;62604;49.432;8.680;2022-10-16T01:54:56;16.50;99.90
10231;DHT22;62604;49.432;8.680;2022-10-16T01:57:26;16.50;99.90
10231;DHT22;62604;49.432;8.680;2022-10-16T01:59:58;16.50;99.90
10231;DHT22;62604;49.432;8.680;2022-10-16T02:02:28;16.50;99.90
10231;DHT22;62604;49.432;8.680;2022-10-16T02:05:01;16.50;99.90
10231;DHT22;62604;49.432;8.680;2022-10-16T02:07:30;16.50;99.90
10231;DHT22;62604;49.432;8.680;2022-10-16T02:09:57;16.50;99.90
10231;DHT22;62604;49.432;8.680;2022-10-16T02:12:28;16.50;99.90
10231;DHT22;62604;49.432;8.680;2022-10-16T02:14:56;16.50;99.90
10231;DHT22;62604;49.432;8.680;2022-10-16T02:17:24;16.50;99.90
10231;DHT22;62604;49.432;8.680;2022-10-16T02:19:53;16.40;99.90
10231;DHT22;62604;49.432;8.680;2022-10-16T02:22:24;16.40;99.90
10231;DHT22;62604;49.432;8.680;2022-10-16T02:24:56;16.40;99.90
10231;DHT22;62604;49.432;8.680;2022-10-16T02:27:29;16.40;99.90
10231;DHT22;62604;49.432;8.680;2022-10-16T02:30:03;16.40;99.90
10231;DHT22;62604;49.432;8.680;2022-10-16T02:32:34;16.50;99.90
10231;DHT22;62604;49.432;8.680;2022-10-16T02:35:04;16.40;99.90
10231;DHT22;62604;49.432;8.680;2022-10-16T02:37:32;16.50;99.90
10231;DHT22;62604;49.432;8.680;2022-10-16T02:39:59;16.40;99.90
10231;DHT22;62604;49.432;8.680;2022-10-16T02:42:32;16.40;99.90
10231;DHT22;62604;49.432;8.680;2022-10-16T02:44:59;16.40;99.90
10231;DHT22;62604;49.432;8.680;2022-10-16T02:47:26;16.40;99.90
10231;DHT22;62604;49.432;8.680;2022-10-16T02:49:54;16.40;99.90
10231;DHT22;62604;49.432;8.680;2022-10-16T02:52:20;16.40;99.90
10231;DHT22;62604;49.432;8.680;2022-10-16T02:54:51;16.30;99.90
10231;DHT22;62604;49.432;8.680;2022-10-16T02:57:18;16.30;99.90
10231;DHT22;62604;49.432;8.680;2022-10-16T02:59:47;16.30;99.90
10231;DHT22;62604;49.432;8.680;2022-10-16T03:02:13;16.20;99.90
10231;DHT22;62604;49.432;8.680;2022-10-16T03:04:41;16.20;99.90
10231;DHT22;62604;49.432;8.680;2022-10-16T03:07:08;16.10;99.90
10231;DHT22;62604;49.432;8.680;2022-10-16T03:09:35;16.10;99.90
10231;DHT22;62604;49.432;8.680;2022-10-16T03:12:02;16.00;99.90
10231;DHT22;62604;49.432;8.680;2022-10-16T03:14:30;16.00;99.90
10231;DHT22;62604;49.432;8.680;2022-10-16T03:16:58;16.00;99.90
10231;DHT22;62604;49.432;8.680;2022-10-16T03:19:25;15.90;99.90
10231;DHT22;62604;49.432;8.680;2022-10-16T03:21:52;16.00;99.90
10231;DHT22;62604;49.432;8.680;2022-10-16T03:24:19;16.10;99.90
10231;DHT22;62604;49.432;8.680;2022-10-16T03:26:46;16.00;99.90
10231;DHT22;62604;49.432;8.680;2022-10-16T03:29:14;16.10;99.90
10231;DHT22;62604;49.432;8.680;2022-10-16T03:31:41;16.10;99.90
10231;DHT22;62604;49.432;8.680;2022-10-16T03:34:10;16.10;99.90
10231;DHT22;62604;49.432;8.680;2022-10-16T03:36:36;16.20;99.90
10231;DHT22;62604;49.432;8.680;2022-10-16T03:39:03;16.20;99.90
10231;DHT22;62604;49.432;8.680;2022-10-16T03:41:30;16.20;99.90
10231;DHT22;62604;49.432;8.680;2022-10-16T03:43:59;16.20;99.90
10231;DHT22;62604;49.432;8.680;2022-10-16T03:46:26;16.20;99.90
10231;DHT22;62604;49.432;8.680;2022-10-16T03:48:52;16.20;99.90
10231;DHT22;62604;49.432;8.680;2022-10-16T03:51:21;16.20;99.90
10231;DHT22;62604;49.432;8.680;2022-10-16T03:53:48;16.20;99.90
10231;DHT22;62604;49.432;8.680;2022-10-16T03:56:15;16.20;99.90
10231;DHT22;62604;49.432;8.680;2022-10-16T03:58:42;16.20;99.90
10231;DHT22;62604;49.432;8.680;2022-10-16T04:01:09;16.20;99.90
10231;DHT22;62604;49.432;8.680;2022-10-16T04:03:36;16.20;99.90
10231;DHT22;62604;49.432;8.680;2022-10-16T04:06:03;16.20;99.90
10231;DHT22;62604;49.432;8.680;2022-10-16T04:08:32;16.30;99.90
10231;DHT22;62604;49.432;8.680;2022-10-16T04:11:00;16.40;99.90
10231;DHT22;62604;49.432;8.680;2022-10-16T04:13:27;16.40;99.90
10231;DHT22;62604;49.432;8.680;2022-10-16T04:15:54;16.50;99.90
10231;DHT22;62604;49.432;8.680;2022-10-16T04:18:22;16.50;99.90
10231;DHT22;62604;49.432;8.680;2022-10-16T04:20:49;16.50;99.90
10231;DHT22;62604;49.432;8.680;2022-10-16T04:23:16;16.60;99.90
10231;DHT22;62604;49.432;8.680;2022-10-16T04:25:44;16.70;99.90
10231;DHT22;62604;49.432;8.680;2022-10-16T04:28:11;16.70;99.90
10231;DHT22;62604;49.432;8.680;2022-10-16T04:30:39;16.70;99.90
10231;DHT22;62604;49.432;8.680;2022-10-16T04:33:07;16.70;99.90
10231;DHT22;62604;49.432;8.680;2022-10-16T04:35:35;16.70;99.90
10231;DHT22;62604;49.432;8.680;2022-10-16T04:38:02;16.70;99.90
10231;DHT22;62604;49.432;8.680;2022-10-16T04:40:29;16.70;99.90
10231;DHT22;62604;49.432;8.680;2022-10-16T04:42:59;16.70;99.90
10231;DHT22;62604;49.432;8.680;2022-10-16T04:45:26;16.70;99.90
10231;DHT22;62604;49.432;8.680;2022-10-16T04:47:56;16.70;99.90
10231;DHT22;62604;49.432;8.680;2022-10-16T04:50:24;16.60;99.90
10231;DHT22;62604;49.432;8.680;2022-10-16T04:52:51;16.70;99.90
10231;DHT22;62604;49.432;8.680;2022-10-16T04:55:18;16.60;99.90
10231;DHT22;62604;49.432;8.680;2022-10-16T04:57:45;16.70;99.90
10231;DHT22;62604;49.432;8.680;2022-10-16T05:00:14;16.80;99.90
10231;DHT22;62604;49.432;8.680;2022-10-16T05:02:41;16.90;99.90
10231;DHT22;62604;49.432;8.680;2022-10-16T05:05:08;16.90;99.90
10231;DHT22;62604;49.432;8.680;2022-10-16T05:07:35;16.90;99.90
10231;DHT22;62604;49.432;8.680;2022-10-16T05:10:02;16.90;99.90
10231;DHT22;62604;49.432;8.680;2022-10-16T05:12:29;16.80;99.90
10231;DHT22;62604;49.432;8.680;2022-10-16T05:14:58;16.70;99.90
10231;DHT22;62604;49.432;8.680;2022-10-16T05:17:28;16.60;99.90
10231;DHT22;62604;49.432;8.680;2022-10-16T05:19:55;16.50;99.90
10231;DHT22;62604;49.432;8.680;2022-10-16T05:22:22;16.40;99.90
10231;DHT22;62604;49.432;8.680;2022-10-16T05:24:50;16.30;99.90
10231;DHT22;62604;49.432;8.680;2022-10-16T05:27:17;16.30;99.90
10231;DHT22;62604;49.432;8.680;2022-10-16T05:29:45;16.20;99.90
10231;DHT22;62604;49.432;8.680;2022-10-16T05:32:13;16.20;99.90
10231;DHT22;62604;49.432;8.680;2022-10-16T05:34:43;16.20;99.90
10231;DHT22;62604;49.432;8.680;2022-10-16T05:37:10;16.20;99.90
10231;DHT22;62604;49.432;8.680;2022-10-16T05:39:37;16.10;99.90
10231;DHT22;62604;49.432;8.680;2022-10-16T05:42:05;16.10;99.90
10231;DHT22;62604;49.432;8.680;2022-10-16T05:44:33;16.20;99.90
10231;DHT22;62604;49.432;8.680;2022-10-16T05:47:00;16.30;99.90
10231;DHT22;62604;49.432;8.680;2022-10-16T05:49:27;16.30;99.90
10231;DHT22;62604;49.432;8.680;2022-10-16T05:51:56;16.40;99.90
10231;DHT22;62604;49.432;8.680;2022-10-16T05:54:23;16.60;99.90
10231;DHT22;62604;49.432;8.680;2022-10-16T05:56:50;16.70;99.90
10231;DHT22;62604;49.432;8.680;2022-10-16T05:59:17;16.90;99.90
10231;DHT22;62604;49.432;8.680;2022-10-16T06:01:44;17.00;99.90
10231;DHT22;62604;49.432;8.680;2022-10-16T06:04:11;17.10;99.90
10231;DHT22;62604;49.432;8.680;2022-10-16T06:06:38;17.20;99.90
10231;DHT22;62604;49.432;8.680;2022-10-16T06:09:08;17.20;99.90
10231;DHT22;62604;49.432;8.680;2022-10-16T06:11:36;17.20;99.90
10231;DHT22;62604;49.432;8.680;2022-10-16T06:14:03;17.10;99.90
10231;DHT22;62604;49.432;8.680;2022-10-16T06:16:33;16.90;99.90
10231;DHT22;62604;49.432;8.680;2022-10-16T06:19:00;16.90;99.90
10231;DHT22;62604;49.432;8.680;2022-10-16T06:21:29;17.00;99.90
10231;DHT22;62604;49.432;8.680;2022-10-16T06:23:57;17.00;99.90
10231;DHT22;62604;49.432;8.680;2022-10-16T06:26:27;17.10;99.90
10231;DHT22;62604;49.432;8.680;2022-10-16T06:28:55;17.10;99.90
10231;DHT22;62604;49.432;8.680;2022-10-16T06:31:23;17.10;99.90
10231;DHT22;62604;49.432;8.680;2022-10-16T06:33:53;17.10;99.90
10231;DHT22;62604;49.432;8.680;2022-10-16T06:36:20;17.10;99.90
10231;DHT22;62604;49.432;8.680;2022-10-16T06:38:48;17.20;99.90
10231;DHT22;62604;49.432;8.680;2022-10-16T06:41:16;17.10;99.90
10231;DHT22;62604;49.432;8.680;2022-10-16T06:43:45;17.20;99.90
10231;DHT22;62604;49.432;8.680;2022-10-16T06:46:15;17.20;99.90
10231;DHT22;62604;49.432;8.680;2022-10-16T06:48:43;17.30;99.90
10231;DHT22;62604;49.432;8.680;2022-10-16T06:51:12;17.20;99.90
10231;DHT22;62604;49.432;8.680;2022-10-16T06:53:41;17.20;99.90
10231;DHT22;62604;49.432;8.680;2022-10-16T06:56:09;17.20;99.90
10231;DHT22;62604;49.432;8.680;2022-10-16T06:58:38;17.20;99.90
10231;DHT22;62604;49.432;8.680;2022-10-16T07:01:08;17.20;99.90
10231;DHT22;62604;49.432;8.680;2022-10-16T07:03:36;17.10;99.90
10231;DHT22;62604;49.432;8.680;2022-10-16T07:06:05;17.10;99.90
10231;DHT22;62604;49.432;8.680;2022-10-16T07:08:33;17.10;99.90
10231;DHT22;62604;49.432;8.680;2022-10-16T07:11:01;17.10;99.90
10231;DHT22;62604;49.432;8.680;2022-10-16T07:13:28;17.10;99.90
10231;DHT22;62604;49.432;8.680;2022-10-16T07:15:55;17.00;99.90
10231;DHT22;62604;49.432;8.680;2022-10-16T07:18:24;17.10;99.90
10231;DHT22;62604;49.432;8.680;2022-10-16T07:21:02;17.10;99.90
10231;DHT22;62604;49.432;8.680;2022-10-16T07:23:29;17.30;99.90
10231;DHT22;62604;49.432;8.680;2022-10-16T07:25:56;17.40;99.90
10231;DHT22;62604;49.432;8.680;2022-10-16T07:28:22;17.60;99.90
10231;DHT22;62604;49.432;8.680;2022-10-16T07:30:50;17.70;99.90
10231;DHT22;62604;49.432;8.680;2022-10-16T07:33:17;17.90;99.90
10231;DHT22;62604;49.432;8.680;2022-10-16T07:35:50;18.00;99.90
10231;DHT22;62604;49.432;8.680;2022-10-16T07:38:18;18.00;99.90
10231;DHT22;62604;49.432;8.680;2022-10-16T07:40:45;18.30;99.90
10231;DHT22;62604;49.432;8.680;2022-10-16T07:43:12;18.30;99.90
10231;DHT22;62604;49.432;8.680;2022-10-16T07:45:47;18.50;99.90
10231;DHT22;62604;49.432;8.680;2022-10-16T07:48:16;18.50;99.90
10231;DHT22;62604;49.432;8.680;2022-10-16T07:50:44;18.60;99.90
10231;DHT22;62604;49.432;8.680;2022-10-16T07:53:13;18.50;99.90
10231;DHT22;62604;49.432;8.680;2022-10-16T07:55:40;18.70;99.90
10231;DHT22;62604;49.432;8.680;2022-10-16T07:58:07;18.80;99.90
10231;DHT22;62604;49.432;8.680;2022-10-16T08:00:36;18.80;99.90
10231;DHT22;62604;49.432;8.680;2022-10-16T08:03:04;18.80;99.90
10231;DHT22;62604;49.432;8.680;2022-10-16T08:05:32;19.00;99.90
10231;DHT22;62604;49.432;8.680;2022-10-16T08:08:00;19.50;99.90
10231;DHT22;62604;49.432;8.680;2022-10-16T08:10:29;19.50;99.90
10231;DHT22;62604;49.432;8.680;2022-10-16T08:12:57;19.60;99.90
10231;DHT22;62604;49.432;8.680;2022-10-16T08:15:24;19.50;99.90
10231;DHT22;62604;49.432;8.680;2022-10-16T08:17:56;19.40;99.90
10231;DHT22;62604;49.432;8.680;2022-10-16T08:20:23;19.60;99.90
10231;DHT22;62604;49.432;8.680;2022-10-16T08:22:51;19.70;99.90
10231;DHT22;62604;49.432;8.680;2022-10-16T08:25:19;19.70;99.90
10231;DHT22;62604;49.432;8.680;2022-10-16T08:27:48;19.60;99.90
10231;DHT22;62604;49.432;8.680;2022-10-16T08:30:17;19.50;99.90
10231;DHT22;62604;49.432;8.680;2022-10-16T08:32:44;19.40;99.90
10231;DHT22;62604;49.432;8.680;2022-10-16T08:35:12;19.40;99.90
10231;DHT22;62604;49.432;8.680;2022-10-16T08:37:40;19.40;99.90
10231;DHT22;62604;49.432;8.680;2022-10-16T08:40:16;19.20;99.90
10231;DHT22;62604;49.432;8.680;2022-10-16T08:43:14;19.20;99.90
10231;DHT22;62604;49.432;8.680;2022-10-16T08:45:59;19.20;99.90
10231;DHT22;62604;49.432;8.680;2022-10-16T08:48:34;19.40;99.90
10231;DHT22;62604;49.432;8.680;2022-10-16T08:51:03;19.80;99.90
10231;DHT22;62604;49.432;8.680;2022-10-16T08:53:38;19.80;99.90
10231;DHT22;62604;49.432;8.680;2022-10-16T08:56:08;20.00;99.90
10231;DHT22;62604;49.432;8.680;2022-10-16T08:58:37;20.10;99.90
10231;DHT22;62604;49.432;8.680;2022-10-16T09:01:11;20.10;99.90
10231;DHT22;62604;49.432;8.680;2022-10-16T09:04:04;21.10;99.90
10231;DHT22;62604;49.432;8.680;2022-10-16T09:06:42;22.80;99.90
10231;DHT22;62604;49.432;8.680;2022-10-16T09:09:32;24.10;95.30
10231;DHT22;62604;49.432;8.680;2022-10-16T09:12:07;24.50;93.00
10231;DHT22;62604;49.432;8.680;2022-10-16T09:14:52;24.60;92.60
10231;DHT22;62604;49.432;8.680;2022-10-16T09:17:32;23.70;93.90
10231;DHT22;62604;49.432;8.680;2022-10-16T09:22:55;22.10;99.40
10231;DHT22;62604;49.432;8.680;2022-10-16T09:25:27;22.00;98.70
10231;DHT22;62604;49.432;8.680;2022-10-16T09:27:55;23.30;94.10
10231;DHT22;62604;49.432;8.680;2022-10-16T09:30:28;24.80;90.10
10231;DHT22;62604;49.432;8.680;2022-10-16T09:32:58;25.60;81.00
10231;DHT22;62604;49.432;8.680;2022-10-16T09:35:32;25.80;74.30
10231;DHT22;62604;49.432;8.680;2022-10-16T09:38:02;25.90;81.60
10231;DHT22;62604;49.432;8.680;2022-10-16T09:40:31;27.20;68.90
10231;DHT22;62604;49.432;8.680;2022-10-16T09:43:07;26.80;65.60
10231;DHT22;62604;49.432;8.680;2022-10-16T09:45:41;27.90;59.00
10231;DHT22;62604;49.432;8.680;2022-10-16T09:48:11;28.10;58.40
10231;DHT22;62604;49.432;8.680;2022-10-16T09:50:39;27.10;57.40
10231;DHT22;62604;49.432;8.680;2022-10-16T09:53:11;26.90;57.70
10231;DHT22;62604;49.432;8.680;2022-10-16T09:55:48;26.60;60.00
10231;DHT22;62604;49.432;8.680;2022-10-16T09:58:16;26.30;62.20
10231;DHT22;62604;49.432;8.680;2022-10-16T10:00:53;25.40;66.30
10231;DHT22;62604;49.432;8.680;2022-10-16T10:03:33;25.10;70.80
10231;DHT22;62604;49.432;8.680;2022-10-16T10:06:15;24.20;76.50
10231;DHT22;62604;49.432;8.680;2022-10-16T10:08:58;23.50;82.00
10231;DHT22;62604;49.432;8.680;2022-10-16T10:11:44;23.30;85.00
10231;DHT22;62604;49.432;8.680;2022-10-16T10:14:19;22.40;89.00
10231;DHT22;62604;49.432;8.680;2022-10-16T10:16:48;22.40;91.70
10231;DHT22;62604;49.432;8.680;2022-10-16T10:19:17;22.50;91.80
10231;DHT22;62604;49.432;8.680;2022-10-16T10:21:45;22.10;92.20
10231;DHT22;62604;49.432;8.680;2022-10-16T10:24:13;22.00;93.60
10231;DHT22;62604;49.432;8.680;2022-10-16T10:26:48;21.60;94.70
10231;DHT22;62604;49.432;8.680;2022-10-16T10:29:28;21.30;96.70
10231;DHT22;62604;49.432;8.680;2022-10-16T10:32:12;21.60;95.80
10231;DHT22;62604;49.432;8.680;2022-10-16T10:34:56;21.60;95.60
10231;DHT22;62604;49.432;8.680;2022-10-16T10:37:42;21.60;95.70
10231;DHT22;62604;49.432;8.680;2022-10-16T10:40:26;22.10;93.50
10231;DHT22;62604;49.432;8.680;2022-10-16T10:43:03;22.90;91.40
10231;DHT22;62604;49.432;8.680;2022-10-16T10:45:40;24.40;84.70
10231;DHT22;62604;49.432;8.680;2022-10-16T10:48:31;25.00;75.00
10231;DHT22;62604;49.432;8.680;2022-10-16T10:51:11;25.80;71.70
10231;DHT22;62604;49.432;8.680;2022-10-16T10:53:46;26.40;66.10
10231;DHT22;62604;49.432;8.680;2022-10-16T10:56:28;26.90;62.20
10231;DHT22;62604;49.432;8.680;2022-10-16T10:59:15;27.00;62.00
10231;DHT22;62604;49.432;8.680;2022-10-16T11:01:50;26.20;62.40
10231;DHT22;62604;49.432;8.680;2022-10-16T11:04:34;25.90;67.30
10231;DHT22;62604;49.432;8.680;2022-10-16T11:07:11;25.60;68.20
10231;DHT22;62604;49.432;8.680;2022-10-16T11:09:42;26.50;68.50
10231;DHT22;62604;49.432;8.680;2022-10-16T11:12:17;26.20;62.50
10231;DHT22;62604;49.432;8.680;2022-10-16T11:14:48;26.70;63.90
10231;DHT22;62604;49.432;8.680;2022-10-16T11:17:19;27.20;59.40
10231;DHT22;62604;49.432;8.680;2022-10-16T11:19:55;26.90;58.40
10231;DHT22;62604;49.432;8.680;2022-10-16T11:22:30;27.00;59.90
10231;DHT22;62604;49.432;8.680;2022-10-16T11:25:02;27.30;59.80
10231;DHT22;62604;49.432;8.680;2022-10-16T11:27:37;27.80;61.30
10231;DHT22;62604;49.432;8.680;2022-10-16T11:30:13;28.90;54.70
10231;DHT22;62604;49.432;8.680;2022-10-16T11:32:57;28.50;53.90
10231;DHT22;62604;49.432;8.680;2022-10-16T11:35:41;28.00;55.70
10231;DHT22;62604;49.432;8.680;2022-10-16T11:38:14;27.60;55.80
10231;DHT22;62604;49.432;8.680;2022-10-16T11:40:43;28.10;54.30
10231;DHT22;62604;49.432;8.680;2022-10-16T11:43:19;27.70;55.20
10231;DHT22;62604;49.432;8.680;2022-10-16T11:45:51;27.80;58.60
10231;DHT22;62604;49.432;8.680;2022-10-16T11:48:25;28.00;53.20
10231;DHT22;62604;49.432;8.680;2022-10-16T11:50:58;27.60;53.90
10231;DHT22;62604;49.432;8.680;2022-10-16T11:53:42;29.20;52.50
10231;DHT22;62604;49.432;8.680;2022-10-16T11:56:14;29.40;46.80
10231;DHT22;62604;49.432;8.680;2022-10-16T11:58:51;28.00;49.10
10231;DHT22;62604;49.432;8.680;2022-10-16T12:01:22;26.90;53.80
10231;DHT22;62604;49.432;8.680;2022-10-16T12:04:03;27.30;55.80
10231;DHT22;62604;49.432;8.680;2022-10-16T12:06:35;26.20;59.30
10231;DHT22;62604;49.432;8.680;2022-10-16T12:09:04;25.70;61.50
10231;DHT22;62604;49.432;8.680;2022-10-16T12:11:36;25.00;67.50
10231;DHT22;62604;49.432;8.680;2022-10-16T12:14:06;24.70;71.30
10231;DHT22;62604;49.432;8.680;2022-10-16T12:16:37;24.50;72.00
10231;DHT22;62604;49.432;8.680;2022-10-16T12:19:13;24.30;73.90
10231;DHT22;62604;49.432;8.680;2022-10-16T12:21:43;24.40;78.00
10231;DHT22;62604;49.432;8.680;2022-10-16T12:24:31;24.30;74.70
10231;DHT22;62604;49.432;8.680;2022-10-16T12:26:59;23.90;75.40
10231;DHT22;62604;49.432;8.680;2022-10-16T12:29:34;23.10;78.00
10231;DHT22;62604;49.432;8.680;2022-10-16T12:32:05;23.00;85.20
10231;DHT22;62604;49.432;8.680;2022-10-16T12:34:38;22.80;83.10
10231;DHT22;62604;49.432;8.680;2022-10-16T12:37:18;22.70;86.10
10231;DHT22;62604;49.432;8.680;2022-10-16T12:39:47;22.70;84.40
10231;DHT22;62604;49.432;8.680;2022-10-16T12:42:33;22.70;83.80
10231;DHT22;62604;49.432;8.680;2022-10-16T12:45:02;22.50;83.40
10231;DHT22;62604;49.432;8.680;2022-10-16T12:47:48;22.40;84.90
10231;DHT22;62604;49.432;8.680;2022-10-16T12:50:34;22.50;86.20
10231;DHT22;62604;49.432;8.680;2022-10-16T12:53:18;22.70;85.90
10231;DHT22;62604;49.432;8.680;2022-10-16T12:55:56;22.70;85.70
10231;DHT22;62604;49.432;8.680;2022-10-16T12:58:47;22.60;86.10
10231;DHT22;62604;49.432;8.680;2022-10-16T13:01:28;22.40;85.40
10231;DHT22;62604;49.432;8.680;2022-10-16T13:04:20;22.30;87.40
10231;DHT22;62604;49.432;8.680;2022-10-16T13:06:55;22.40;87.50
10231;DHT22;62604;49.432;8.680;2022-10-16T13:09:53;22.70;87.00
10231;DHT22;62604;49.432;8.680;2022-10-16T13:12:40;23.10;84.40
10231;DHT22;62604;49.432;8.680;2022-10-16T13:15:25;23.20;82.30
10231;DHT22;62604;49.432;8.680;2022-10-16T13:18:00;23.20;83.50
10231;DHT22;62604;49.432;8.680;2022-10-16T13:20:33;23.00;84.30
10231;DHT22;62604;49.432;8.680;2022-10-16T13:23:10;22.80;84.90
10231;DHT22;62604;49.432;8.680;2022-10-16T13:25:58;22.50;87.00
10231;DHT22;62604;49.432;8.680;2022-10-16T13:28:30;22.30;88.20
10231;DHT22;62604;49.432;8.680;2022-10-16T13:30:59;22.10;90.10
10231;DHT22;62604;49.432;8.680;2022-10-16T13:33:32;22.00;90.50
10231;DHT22;62604;49.432;8.680;2022-10-16T13:36:00;21.90;91.20
10231;DHT22;62604;49.432;8.680;2022-10-16T13:38:29;21.80;92.10
10231;DHT22;62604;49.432;8.680;2022-10-16T13:41:00;21.70;92.60
10231;DHT22;62604;49.432;8.680;2022-10-16T13:43:32;21.70;93.10
10231;DHT22;62604;49.432;8.680;2022-10-16T13:46:01;21.60;93.10
10231;DHT22;62604;49.432;8.680;2022-10-16T13:48:29;21.60;93.00
10231;DHT22;62604;49.432;8.680;2022-10-16T13:51:05;21.50;93.50
10231;DHT22;62604;49.432;8.680;2022-10-16T13:53:34;21.50;94.10
10231;DHT22;62604;49.432;8.680;2022-10-16T13:56:16;21.40;94.90
10231;DHT22;62604;49.432;8.680;2022-10-16T13:58:45;21.40;95.10
10231;DHT22;62604;49.432;8.680;2022-10-16T14:01:17;21.40;94.60
10231;DHT22;62604;49.432;8.680;2022-10-16T14:03:45;21.30;95.10
10231;DHT22;62604;49.432;8.680;2022-10-16T14:06:15;21.30;95.70
10231;DHT22;62604;49.432;8.680;2022-10-16T14:08:45;21.20;96.10
10231;DHT22;62604;49.432;8.680;2022-10-16T14:11:21;21.10;96.00
10231;DHT22;62604;49.432;8.680;2022-10-16T14:13:49;21.10;96.60
10231;DHT22;62604;49.432;8.680;2022-10-16T14:16:19;21.10;97.40
10231;DHT22;62604;49.432;8.680;2022-10-16T14:18:55;21.00;97.70
10231;DHT22;62604;49.432;8.680;2022-10-16T14:21:23;20.90;99.90
10231;DHT22;62604;49.432;8.680;2022-10-16T14:23:50;20.80;99.90
10231;DHT22;62604;49.432;8.680;2022-10-16T14:26:22;20.70;99.90
10231;DHT22;62604;49.432;8.680;2022-10-16T14:29:00;20.60;99.90
10231;DHT22;62604;49.432;8.680;2022-10-16T14:31:30;20.50;99.90
10231;DHT22;62604;49.432;8.680;2022-10-16T14:33:58;20.40;99.90
10231;DHT22;62604;49.432;8.680;2022-10-16T14:36:27;20.40;99.90
10231;DHT22;62604;49.432;8.680;2022-10-16T14:38:59;20.30;99.90
10231;DHT22;62604;49.432;8.680;2022-10-16T14:41:30;20.20;99.90
10231;DHT22;62604;49.432;8.680;2022-10-16T14:44:01;20.10;99.90
10231;DHT22;62604;49.432;8.680;2022-10-16T14:46:32;20.10;99.90
10231;DHT22;62604;49.432;8.680;2022-10-16T14:49:03;20.00;99.90
10231;DHT22;62604;49.432;8.680;2022-10-16T14:51:31;19.80;99.90
10231;DHT22;62604;49.432;8.680;2022-10-16T14:53:59;19.80;99.90
10231;DHT22;62604;49.432;8.680;2022-10-16T14:56:33;19.70;99.90
10231;DHT22;62604;49.432;8.680;2022-10-16T14:59:01;19.80;99.90
10231;DHT22;62604;49.432;8.680;2022-10-16T15:01:40;19.90;99.90
10231;DHT22;62604;49.432;8.680;2022-10-16T15:04:09;20.00;99.90
10231;DHT22;62604;49.432;8.680;2022-10-16T15:06:38;19.90;99.90
10231;DHT22;62604;49.432;8.680;2022-10-16T15:09:05;20.00;99.90
10231;DHT22;62604;49.432;8.680;2022-10-16T15:11:34;20.20;99.90
10231;DHT22;62604;49.432;8.680;2022-10-16T15:14:01;20.30;99.90
10231;DHT22;62604;49.432;8.680;2022-10-16T15:16:30;20.40;99.90
10231;DHT22;62604;49.432;8.680;2022-10-16T15:18:58;20.50;99.90
10231;DHT22;62604;49.432;8.680;2022-10-16T15:21:27;20.60;99.90
10231;DHT22;62604;49.432;8.680;2022-10-16T15:23:54;20.70;99.30
10231;DHT22;62604;49.432;8.680;2022-10-16T15:26:23;20.80;96.10
10231;DHT22;62604;49.432;8.680;2022-10-16T15:28:53;20.90;93.30
10231;DHT22;62604;49.432;8.680;2022-10-16T15:31:21;20.90;93.30
10231;DHT22;62604;49.432;8.680;2022-10-16T15:33:49;20.90;92.20
10231;DHT22;62604;49.432;8.680;2022-10-16T15:36:25;20.90;91.90
10231;DHT22;62604;49.432;8.680;2022-10-16T15:38:53;20.90;91.60
10231;DHT22;62604;49.432;8.680;2022-10-16T15:41:20;20.80;92.00
10231;DHT22;62604;49.432;8.680;2022-10-16T15:43:49;20.80;92.80
10231;DHT22;62604;49.432;8.680;2022-10-16T15:46:21;20.70;94.70
10231;DHT22;62604;49.432;8.680;2022-10-16T15:48:50;20.50;96.10
10231;DHT22;62604;49.432;8.680;2022-10-16T15:51:18;20.30;98.20
10231;DHT22;62604;49.432;8.680;2022-10-16T15:53:45;20.20;99.90
10231;DHT22;62604;49.432;8.680;2022-10-16T15:56:14;20.10;99.90
10231;DHT22;62604;49.432;8.680;2022-10-16T15:58:42;19.90;99.90